createdAt,value
2023-03-14T00:00:55.443Z,19.58
2023-03-14T00:03:42.594Z,19.55
2023-03-14T00:06:29.678Z,19.54
2023-03-14T00:09:17.823Z,19.52
2023-03-14T00:12:04.835Z,19.50
2023-03-14T00:14:52.277Z,19.48
2023-03-14T00:17:39.794Z,19.46
2023-03-14T00:20:27.105Z,19.45
2023-03-14T00:23:13.925Z,19.43
2023-03-14T00:26:02.410Z,19.41
2023-03-14T00:28:54.199Z,19.40
2023-03-14T00:31:41.125Z,19.38
2023-03-14T00:34:30.886Z,19.36
2023-03-14T00:37:17.558Z,19.34
2023-03-14T00:40:07.794Z,19.33
2023-03-14T00:42:54.715Z,19.31
2023-03-14T00:45:41.716Z,19.30
2023-03-14T00:48:28.979Z,19.28
2023-03-14T00:51:16.453Z,19.26
2023-03-14T00:54:04.305Z,19.25
2023-03-14T00:56:51.215Z,19.23
2023-03-14T00:59:37.704Z,19.21
2023-03-14T01:02:24.725Z,19.20
2023-03-14T01:05:12.158Z,19.18
2023-03-14T01:07:59.408Z,19.16
2023-03-14T01:10:47.837Z,19.14
2023-03-14T01:13:34.746Z,19.13
2023-03-14T01:16:24.143Z,19.11
2023-03-14T01:19:11.031Z,19.10
2023-03-14T01:21:57.943Z,19.08
2023-03-14T01:24:44.973Z,19.07
2023-03-14T01:27:32.128Z,19.06
2023-03-14T01:30:19.214Z,19.04
2023-03-14T01:33:06.636Z,19.02
2023-03-14T01:35:53.900Z,19.01
2023-03-14T01:38:41.488Z,18.99
2023-03-14T01:41:29.937Z,18.98
2023-03-14T01:44:18.153Z,18.96
2023-03-14T01:47:07.548Z,18.95
2023-03-14T01:50:02.566Z,18.93
2023-03-14T01:52:53.872Z,18.92
2023-03-14T01:55:41.580Z,18.90
2023-03-14T01:58:30.471Z,18.89
2023-03-14T02:01:21.148Z,18.88
2023-03-14T02:04:09.825Z,18.86
2023-03-14T02:07:12.399Z,18.85
2023-03-14T02:10:06.481Z,18.83
2023-03-14T02:12:57.787Z,18.82
2023-03-14T02:15:57.398Z,18.81
2023-03-14T02:18:58.450Z,18.79
2023-03-14T02:22:11.770Z,18.78
2023-03-14T02:25:39.345Z,18.76
2023-03-14T02:28:26.050Z,18.75
2023-03-14T02:31:17.439Z,18.73
2023-03-14T02:34:05.506Z,18.72
2023-03-14T02:36:54.770Z,18.70
2023-03-14T02:39:46.100Z,18.69
2023-03-14T02:42:34.247Z,18.67
2023-03-14T02:45:23.295Z,18.65
2023-03-14T02:48:25.576Z,18.64
2023-03-14T02:51:13.487Z,18.62
2023-03-14T02:54:00.528Z,18.61
2023-03-14T02:56:47.600Z,18.59
2023-03-14T02:59:34.448Z,18.58
2023-03-14T03:02:29.262Z,18.56
2023-03-14T03:05:16.989Z,18.55
2023-03-14T03:08:04.554Z,18.53
2023-03-14T03:10:52.544Z,18.51
2023-03-14T03:13:39.462Z,18.50
2023-03-14T03:16:26.871Z,18.49
2023-03-14T03:19:14.927Z,18.47
2023-03-14T03:22:02.046Z,18.46
2023-03-14T03:24:50.110Z,18.44
2023-03-14T03:27:38.816Z,18.43
2023-03-14T03:30:25.790Z,18.42
2023-03-14T03:33:13.816Z,18.40
2023-03-14T03:36:03.260Z,18.38
2023-03-14T03:38:52.970Z,18.37
2023-03-14T03:41:39.686Z,18.35
2023-03-14T03:44:26.792Z,18.34
2023-03-14T03:47:13.909Z,18.33
2023-03-14T03:50:00.691Z,18.32
2023-03-14T03:52:47.793Z,18.30
2023-03-14T03:55:34.952Z,18.29
2023-03-14T03:58:21.868Z,18.27
2023-03-14T04:01:10.230Z,18.26
2023-03-14T04:03:57.497Z,18.24
2023-03-14T04:06:45.325Z,18.24
2023-03-14T04:09:32.598Z,18.22
2023-03-14T04:12:42.346Z,18.20
2023-03-14T04:15:37.215Z,18.19
2023-03-14T04:18:31.522Z,18.18
2023-03-14T04:21:19.060Z,18.16
2023-03-14T04:24:09.765Z,18.14
2023-03-14T04:26:56.886Z,18.14
2023-03-14T04:29:45.354Z,18.12
2023-03-14T04:32:35.824Z,18.10
2023-03-14T04:35:22.833Z,18.09
2023-03-14T04:38:13.728Z,18.07
2023-03-14T04:41:04.864Z,18.06
2023-03-14T04:43:52.900Z,18.05
2023-03-14T04:46:40.485Z,18.03
2023-03-14T04:49:27.788Z,18.02
2023-03-14T04:52:14.862Z,18.01
2023-03-14T04:55:02.669Z,18.00
2023-03-14T04:57:49.726Z,17.99
2023-03-14T05:00:38.194Z,17.97
2023-03-14T05:03:32.742Z,17.96
2023-03-14T05:06:31.452Z,17.95
2023-03-14T05:09:21.233Z,17.94
2023-03-14T05:12:27.097Z,17.93
2023-03-14T05:15:14.616Z,17.92
2023-03-14T05:18:21.285Z,17.92
2023-03-14T05:21:43.638Z,17.90
2023-03-14T05:24:36.907Z,17.90
2023-03-14T05:27:38.176Z,17.89
2023-03-14T05:30:48.304Z,17.89
2023-03-14T05:33:41.372Z,17.89
2023-03-14T05:36:36.708Z,18.02
2023-03-14T05:39:24.000Z,18.17
2023-03-14T05:42:26.891Z,18.21
2023-03-14T05:45:36.698Z,18.22
2023-03-14T05:48:49.756Z,18.26
2023-03-14T05:52:02.884Z,18.35
2023-03-14T05:55:09.051Z,18.42
2023-03-14T05:58:18.597Z,18.42
2023-03-14T06:01:41.108Z,18.46
2023-03-14T06:04:31.963Z,18.53
2023-03-14T06:07:20.202Z,18.63
2023-03-14T06:10:08.027Z,18.70
2023-03-14T06:12:54.760Z,18.77
2023-03-14T06:15:41.988Z,18.83
2023-03-14T06:18:29.291Z,18.88
2023-03-14T06:21:18.452Z,18.93
2023-03-14T06:24:06.882Z,18.98
2023-03-14T06:26:59.140Z,19.02
2023-03-14T06:29:45.942Z,19.06
2023-03-14T06:32:32.682Z,19.10
2023-03-14T06:35:23.135Z,19.15
2023-03-14T06:38:10.174Z,19.21
2023-03-14T06:40:57.768Z,19.26
2023-03-14T06:43:56.413Z,19.28
2023-03-14T06:46:43.915Z,19.29
2023-03-14T06:49:31.348Z,19.31
2023-03-14T06:52:18.873Z,19.31
2023-03-14T06:55:06.640Z,19.32
2023-03-14T06:57:53.307Z,19.34
2023-03-14T07:00:40.845Z,19.37
2023-03-14T07:03:27.955Z,19.40
2023-03-14T07:06:16.038Z,19.44
2023-03-14T07:09:04.253Z,19.48
2023-03-14T07:11:52.596Z,19.52
2023-03-14T07:14:40.125Z,19.57
2023-03-14T07:17:27.650Z,19.62
2023-03-14T07:20:15.272Z,19.67
2023-03-14T07:23:04.024Z,19.73
2023-03-14T07:25:56.893Z,19.78
2023-03-14T07:28:45.339Z,19.81
2023-03-14T07:31:35.230Z,19.85
2023-03-14T07:34:23.079Z,19.89
2023-03-14T07:37:10.968Z,19.93
2023-03-14T07:39:57.938Z,19.98
2023-03-14T07:42:47.997Z,20.01
2023-03-14T07:45:42.373Z,20.03
2023-03-14T07:48:30.012Z,20.04
2023-03-14T07:51:17.605Z,20.04
2023-03-14T07:54:04.966Z,20.02
2023-03-14T07:56:53.211Z,20.00
2023-03-14T07:59:40.439Z,20.03
2023-03-14T08:02:27.707Z,20.08
2023-03-14T08:05:14.974Z,20.13
2023-03-14T08:08:01.791Z,20.16
2023-03-14T08:10:49.011Z,20.19
2023-03-14T08:13:37.254Z,20.24
2023-03-14T08:16:24.701Z,20.29
2023-03-14T08:19:11.902Z,20.34
2023-03-14T08:21:58.714Z,20.38
2023-03-14T08:24:45.359Z,20.40
2023-03-14T08:27:32.337Z,20.42
2023-03-14T08:30:21.001Z,20.43
2023-03-14T08:33:08.441Z,20.42
2023-03-14T08:35:57.346Z,20.43
2023-03-14T08:38:44.899Z,20.42
2023-03-14T08:41:31.920Z,20.40
2023-03-14T08:44:20.744Z,20.39
2023-03-14T08:47:07.835Z,20.37
2023-03-14T08:49:55.299Z,20.35
2023-03-14T08:52:42.596Z,20.33
2023-03-14T08:55:29.458Z,20.31
2023-03-14T08:58:16.474Z,20.29
2023-03-14T09:01:03.571Z,20.27
2023-03-14T09:03:50.945Z,20.26
2023-03-14T09:06:38.139Z,20.27
2023-03-14T09:09:28.268Z,20.27
2023-03-14T09:12:15.557Z,20.27
2023-03-14T09:15:03.692Z,20.27
2023-03-14T09:17:51.223Z,20.26
2023-03-14T09:20:38.127Z,20.25
2023-03-14T09:23:24.954Z,20.24
2023-03-14T09:26:11.862Z,20.23
2023-03-14T09:28:58.871Z,20.20
2023-03-14T09:31:46.146Z,20.18
2023-03-14T09:34:34.281Z,20.17
2023-03-14T09:37:23.096Z,20.17
2023-03-14T09:40:21.453Z,20.17
2023-03-14T09:43:15.353Z,20.16
2023-03-14T09:46:04.249Z,20.15
2023-03-14T09:48:51.124Z,20.14
2023-03-14T09:51:38.849Z,20.12
2023-03-14T09:54:53.826Z,20.10
2023-03-14T09:57:42.348Z,20.09
2023-03-14T10:00:31.666Z,20.08
2023-03-14T10:03:30.333Z,20.08
2023-03-14T10:06:16.956Z,20.10
2023-03-14T10:09:05.696Z,20.12
2023-03-14T10:11:57.066Z,20.14
2023-03-14T10:15:18.947Z,20.17
2023-03-14T10:18:13.877Z,20.22
2023-03-14T10:21:30.039Z,20.27
2023-03-14T10:24:30.075Z,20.30
2023-03-14T10:27:23.121Z,20.33
2023-03-14T10:30:35.012Z,20.37
2023-03-14T10:33:25.186Z,20.42
2023-03-14T10:36:29.391Z,20.46
2023-03-14T10:39:19.032Z,20.50
2023-03-14T10:42:15.584Z,20.54
2023-03-14T10:45:06.332Z,20.56
2023-03-14T10:47:53.568Z,20.56
2023-03-14T10:50:55.868Z,20.59
2023-03-14T10:53:46.848Z,20.62
2023-03-14T10:56:38.724Z,20.68
2023-03-14T10:59:28.792Z,20.74
2023-03-14T11:02:15.411Z,20.79
2023-03-14T11:05:08.539Z,20.84
2023-03-14T11:08:02.320Z,20.90
2023-03-14T11:10:55.659Z,20.96
2023-03-14T11:13:56.024Z,21.02
2023-03-14T11:16:49.071Z,21.08
2023-03-14T11:19:42.006Z,21.14
2023-03-14T11:22:42.457Z,21.20
2023-03-14T11:25:40.881Z,21.26
2023-03-14T11:28:33.895Z,21.33
2023-03-14T11:31:27.822Z,21.39
2023-03-14T11:34:28.713Z,21.45
2023-03-14T11:37:24.759Z,21.51
2023-03-14T11:40:19.134Z,21.58
2023-03-14T11:43:09.424Z,21.64
2023-03-14T11:46:03.055Z,21.68
2023-03-14T11:49:09.582Z,21.73
2023-03-14T11:52:04.462Z,21.77
2023-03-14T11:55:21.654Z,21.82
2023-03-14T11:58:47.108Z,21.83
2023-03-14T12:01:53.252Z,21.81
2023-03-14T12:05:03.830Z,21.78
2023-03-14T12:08:09.269Z,21.75
2023-03-14T12:11:02.029Z,21.71
2023-03-14T12:13:54.701Z,21.69
2023-03-14T12:16:42.101Z,21.68
2023-03-14T12:19:32.857Z,21.70
2023-03-14T12:22:36.192Z,21.74
2023-03-14T12:25:33.263Z,21.78
2023-03-14T12:28:23.165Z,21.82
2023-03-14T12:31:32.475Z,21.87
2023-03-14T12:34:19.495Z,21.93
2023-03-14T12:37:09.385Z,21.99
2023-03-14T12:40:20.399Z,22.05
2023-03-14T12:43:27.480Z,22.14
2023-03-14T12:46:28.538Z,22.23
2023-03-14T12:49:15.510Z,22.30
2023-03-14T12:52:04.089Z,22.34
2023-03-14T12:54:59.082Z,22.34
2023-03-14T12:58:00.873Z,22.34
2023-03-14T13:00:56.502Z,22.32
2023-03-14T13:03:51.931Z,22.31
2023-03-14T13:07:00.445Z,22.29
2023-03-14T13:13:26.946Z,22.25
2023-03-14T13:16:16.722Z,22.26
2023-03-14T13:19:20.621Z,22.28
2023-03-14T13:22:40.082Z,22.27
2023-03-14T13:25:34.960Z,22.24
2023-03-14T13:28:22.062Z,22.23
2023-03-14T13:31:22.569Z,22.23
2023-03-14T13:34:12.191Z,22.22
2023-03-14T13:36:59.878Z,22.20
2023-03-14T13:39:54.611Z,22.20
2023-03-14T13:42:41.783Z,22.23
2023-03-14T13:45:28.693Z,22.26
2023-03-14T13:48:18.879Z,22.28
2023-03-14T13:51:10.228Z,22.29
2023-03-14T13:53:57.421Z,22.27
2023-03-14T13:56:45.328Z,22.22
2023-03-14T13:59:34.228Z,22.20
2023-03-14T14:02:22.059Z,22.16
2023-03-14T14:05:12.764Z,22.10
2023-03-14T14:08:00.112Z,22.04
2023-03-14T14:10:50.228Z,21.98
2023-03-14T14:13:37.491Z,21.93
2023-03-14T14:16:27.327Z,21.89
2023-03-14T14:19:16.956Z,21.85
2023-03-14T14:22:05.407Z,21.82
2023-03-14T14:24:53.091Z,21.79
2023-03-14T14:27:43.625Z,21.76
2023-03-14T14:30:34.949Z,21.73
2023-03-14T14:33:22.883Z,21.70
2023-03-14T14:36:26.701Z,21.69
2023-03-14T14:39:27.294Z,21.65
2023-03-14T14:42:18.081Z,21.60
2023-03-14T14:45:08.219Z,21.57
2023-03-14T14:48:06.614Z,21.54
2023-03-14T14:51:04.068Z,21.51
2023-03-14T14:53:50.877Z,21.49
2023-03-14T14:56:39.442Z,21.47
2023-03-14T14:59:31.573Z,21.45
2023-03-14T15:02:28.452Z,21.43
2023-03-14T15:05:24.763Z,21.42
2023-03-14T15:08:12.256Z,21.40
2023-03-14T15:10:59.329Z,21.38
2023-03-14T15:13:46.120Z,21.36
2023-03-14T15:16:33.432Z,21.34
2023-03-14T15:19:26.677Z,21.31
2023-03-14T15:22:15.568Z,21.29
2023-03-14T15:25:02.574Z,21.26
2023-03-14T15:27:49.402Z,21.24
2023-03-14T15:30:36.390Z,21.22
2023-03-14T15:33:24.337Z,21.20
2023-03-14T15:36:32.655Z,21.17
2023-03-14T15:39:19.554Z,21.15
2023-03-14T15:42:06.781Z,21.13
2023-03-14T15:44:53.802Z,21.11
2023-03-14T15:47:40.936Z,21.13
2023-03-14T15:50:28.442Z,21.19
2023-03-14T15:53:16.280Z,21.22
2023-03-14T15:56:03.084Z,21.22
2023-03-14T15:58:50.008Z,21.21
2023-03-14T16:01:37.161Z,21.20
2023-03-14T16:04:24.149Z,21.19
2023-03-14T16:07:10.756Z,21.19
2023-03-14T16:09:57.560Z,21.18
2023-03-14T16:12:44.880Z,21.17
2023-03-14T16:15:31.701Z,21.15
2023-03-14T16:18:21.828Z,21.15
2023-03-14T16:21:14.128Z,21.13
2023-03-14T16:24:03.205Z,21.13
2023-03-14T16:26:50.400Z,21.13
2023-03-14T16:29:37.740Z,21.13
2023-03-14T16:32:25.312Z,21.12
2023-03-14T16:35:12.475Z,21.13
2023-03-14T16:38:01.520Z,21.12
2023-03-14T16:40:57.599Z,21.12
2023-03-14T16:43:46.019Z,21.11
2023-03-14T16:46:32.900Z,21.11
2023-03-14T16:49:20.245Z,21.11
2023-03-14T16:52:08.729Z,21.10
2023-03-14T16:54:55.617Z,21.09
2023-03-14T16:57:42.629Z,21.09
2023-03-14T17:00:29.256Z,21.08
2023-03-14T17:03:17.700Z,21.07
2023-03-14T17:06:04.703Z,21.06
2023-03-14T17:08:52.037Z,21.05
2023-03-14T17:11:38.826Z,21.04
2023-03-14T17:14:26.673Z,21.04
2023-03-14T17:17:13.471Z,21.02
2023-03-14T17:20:00.593Z,21.01
2023-03-14T17:22:47.725Z,21.01
2023-03-14T17:25:36.569Z,21.05
2023-03-14T17:28:26.151Z,21.17
2023-03-14T17:31:16.308Z,21.32
2023-03-14T17:34:02.940Z,21.45
2023-03-14T17:36:49.670Z,21.58
2023-03-14T17:39:36.431Z,21.68
2023-03-14T17:42:23.084Z,21.75
2023-03-14T17:45:10.463Z,21.82
2023-03-14T17:47:57.631Z,21.88
2023-03-14T17:50:44.569Z,21.94
2023-03-14T17:53:31.656Z,21.99
2023-03-14T17:56:18.794Z,22.04
2023-03-14T17:59:06.200Z,22.10
2023-03-14T18:01:53.341Z,22.15
2023-03-14T18:04:40.073Z,22.19
2023-03-14T18:07:28.189Z,22.22
2023-03-14T18:10:17.401Z,22.25
2023-03-14T18:13:04.392Z,22.28
2023-03-14T18:15:52.553Z,22.31
2023-03-14T18:18:40.842Z,22.33
2023-03-14T18:21:30.226Z,22.34
2023-03-14T18:24:18.974Z,22.35
2023-03-14T18:27:06.498Z,22.36
2023-03-14T18:29:53.527Z,22.38
2023-03-14T18:32:41.217Z,22.41
2023-03-14T18:35:28.490Z,22.46
2023-03-14T18:38:15.477Z,22.51
2023-03-14T18:41:07.159Z,22.50
2023-03-14T18:43:55.054Z,22.52
2023-03-14T18:46:42.742Z,22.56
2023-03-14T18:49:29.808Z,22.61
2023-03-14T18:52:17.251Z,22.66
2023-03-14T18:55:04.761Z,22.69
2023-03-14T18:57:53.398Z,22.72
2023-03-14T19:00:42.596Z,22.73
2023-03-14T19:03:30.992Z,22.73
2023-03-14T19:06:20.301Z,22.71
2023-03-14T19:09:07.303Z,22.66
2023-03-14T19:11:54.625Z,22.57
2023-03-14T19:14:41.537Z,22.47
2023-03-14T19:17:28.970Z,22.38
2023-03-14T19:20:16.198Z,22.29
2023-03-14T19:23:02.992Z,22.21
2023-03-14T19:25:54.608Z,22.13
2023-03-14T19:28:41.854Z,22.07
2023-03-14T19:31:29.140Z,22.00
2023-03-14T19:34:16.387Z,21.93
2023-03-14T19:37:03.605Z,21.88
2023-03-14T19:39:50.921Z,21.83
2023-03-14T19:42:38.016Z,21.78
2023-03-14T19:45:25.257Z,21.73
2023-03-14T19:48:12.168Z,21.69
2023-03-14T19:51:02.323Z,21.66
2023-03-14T19:53:49.269Z,21.63
2023-03-14T19:56:38.349Z,21.59
2023-03-14T19:59:25.557Z,21.56
2023-03-14T20:02:16.240Z,21.53
2023-03-14T20:05:06.181Z,21.50
2023-03-14T20:07:54.959Z,21.47
2023-03-14T20:10:42.534Z,21.44
2023-03-14T20:13:29.432Z,21.41
2023-03-14T20:16:17.058Z,21.39
2023-03-14T20:19:06.254Z,21.36
2023-03-14T20:21:53.073Z,21.33
2023-03-14T20:24:40.284Z,21.31
2023-03-14T20:27:26.992Z,21.28
2023-03-14T20:30:17.713Z,21.25
2023-03-14T20:33:05.051Z,21.23
2023-03-14T20:36:00.299Z,21.21
2023-03-14T20:38:47.319Z,21.20
2023-03-14T20:41:37.059Z,21.18
2023-03-14T20:44:25.001Z,21.16
2023-03-14T20:47:12.906Z,21.15
2023-03-14T20:50:01.776Z,21.14
2023-03-14T20:52:48.620Z,21.12
2023-03-14T20:55:35.521Z,21.11
2023-03-14T20:58:22.100Z,21.11
2023-03-14T21:01:09.316Z,21.10
2023-03-14T21:03:56.424Z,21.10
2023-03-14T21:06:43.430Z,21.09
2023-03-14T21:09:30.574Z,21.08
2023-03-14T21:12:17.886Z,21.08
2023-03-14T21:15:06.442Z,21.07
2023-03-14T21:17:53.979Z,21.06
2023-03-14T21:20:42.636Z,21.06
2023-03-14T21:23:29.428Z,21.06
2023-03-14T21:26:16.125Z,21.05
2023-03-14T21:29:03.366Z,21.04
2023-03-14T21:31:51.210Z,21.04
2023-03-14T21:34:38.625Z,21.03
2023-03-14T21:37:27.879Z,21.02
2023-03-14T21:40:15.550Z,21.01
2023-03-14T21:43:02.844Z,21.01
2023-03-14T21:45:50.271Z,21.00
2023-03-14T21:48:37.083Z,20.99
2023-03-14T21:51:30.056Z,20.99
2023-03-14T21:54:17.048Z,20.97
2023-03-14T21:57:06.073Z,20.97
2023-03-14T21:59:52.825Z,20.96
2023-03-14T22:02:40.613Z,20.95
2023-03-14T22:05:28.086Z,20.94
2023-03-14T22:08:16.769Z,20.93
2023-03-14T22:11:06.927Z,20.92
2023-03-14T22:13:54.035Z,20.91
2023-03-14T22:16:41.192Z,20.91
2023-03-14T22:19:28.280Z,20.90
2023-03-14T22:22:15.600Z,20.89
2023-03-14T22:25:02.821Z,20.87
2023-03-14T22:27:50.145Z,20.86
2023-03-14T22:30:38.164Z,20.85
2023-03-14T22:33:24.992Z,20.84
2023-03-14T22:36:11.619Z,20.83
2023-03-14T22:38:59.023Z,20.81
2023-03-14T22:41:45.938Z,20.80
2023-03-14T22:44:33.154Z,20.79
2023-03-14T22:47:20.789Z,20.78
2023-03-14T22:50:08.420Z,20.76
2023-03-14T22:52:55.826Z,20.75
2023-03-14T22:55:42.756Z,20.74
2023-03-14T22:58:29.877Z,20.73
2023-03-14T23:01:17.021Z,20.71
2023-03-14T23:04:04.216Z,20.69
2023-03-14T23:06:50.899Z,20.68
2023-03-14T23:09:39.316Z,20.66
2023-03-14T23:12:26.381Z,20.66
2023-03-14T23:15:16.133Z,20.63
2023-03-14T23:18:03.294Z,20.62
2023-03-14T23:20:50.416Z,20.60
2023-03-14T23:23:38.055Z,20.59
2023-03-14T23:26:27.121Z,20.58
2023-03-14T23:29:14.443Z,20.57
2023-03-14T23:32:01.296Z,20.56
2023-03-14T23:34:48.590Z,20.55
2023-03-14T23:37:35.495Z,20.53
2023-03-14T23:40:22.517Z,20.52
2023-03-14T23:43:09.412Z,20.51
2023-03-14T23:45:57.479Z,20.50
2023-03-14T23:48:48.250Z,20.50
2023-03-14T23:51:35.161Z,20.50
2023-03-14T23:54:22.084Z,20.50
2023-03-14T23:57:10.345Z,20.49
2023-03-14T23:59:57.648Z,20.50
